createdAt,value
2022-12-31T00:00:17.198Z,14.54
2022-12-31T00:02:43.790Z,14.53
2022-12-31T00:05:10.783Z,14.46
2022-12-31T00:10:04.461Z,14.47
2022-12-31T00:12:31.007Z,14.51
2022-12-31T00:14:57.575Z,14.44
2022-12-31T00:17:24.164Z,14.45
2022-12-31T00:19:50.827Z,14.51
2022-12-31T00:22:17.397Z,14.50
2022-12-31T00:24:43.981Z,14.48
2022-12-31T00:27:10.599Z,14.51
2022-12-31T00:29:37.134Z,14.65
2022-12-31T00:32:03.731Z,14.60
2022-12-31T00:34:30.452Z,14.59
2022-12-31T00:36:56.961Z,14.50
2022-12-31T00:39:23.626Z,14.53
2022-12-31T00:41:50.174Z,14.73
2022-12-31T00:44:16.651Z,14.74
2022-12-31T00:49:09.378Z,14.56
2022-12-31T00:51:35.840Z,14.51
2022-12-31T00:54:02.333Z,14.54
2022-12-31T00:56:30.728Z,14.65
2022-12-31T00:58:58.174Z,14.61
2022-12-31T01:01:28.771Z,14.68
2022-12-31T01:04:02.468Z,14.64
2022-12-31T01:06:29.024Z,14.66
2022-12-31T01:08:55.808Z,14.60
2022-12-31T01:11:24.004Z,14.61
2022-12-31T01:14:04.783Z,14.64
2022-12-31T01:16:34.063Z,14.65
2022-12-31T01:19:04.691Z,14.57
2022-12-31T01:21:32.088Z,14.45
2022-12-31T01:23:59.698Z,14.45
2022-12-31T01:26:27.279Z,14.39
2022-12-31T01:28:53.843Z,14.30
2022-12-31T01:31:22.643Z,14.19
2022-12-31T01:33:49.317Z,14.18
2022-12-31T01:36:25.601Z,14.10
2022-12-31T01:38:54.319Z,14.00
2022-12-31T01:41:26.900Z,13.89
2022-12-31T01:43:59.245Z,13.83
2022-12-31T01:46:40.792Z,13.80
2022-12-31T01:49:39.375Z,13.76
2022-12-31T01:52:15.584Z,13.97
2022-12-31T01:54:52.326Z,13.97
2022-12-31T01:57:19.750Z,13.90
2022-12-31T01:59:46.804Z,13.88
2022-12-31T02:07:42.119Z,13.75
2022-12-31T02:10:08.899Z,13.74
2022-12-31T02:12:35.549Z,13.71
2022-12-31T02:15:02.390Z,13.66
2022-12-31T02:17:37.855Z,13.57
2022-12-31T02:20:54.057Z,13.50
2022-12-31T02:23:55.600Z,13.45
2022-12-31T02:26:28.047Z,13.46
2022-12-31T02:29:13.332Z,13.44
2022-12-31T02:31:50.203Z,13.44
2022-12-31T02:34:31.397Z,13.37
2022-12-31T02:37:01.283Z,13.34
2022-12-31T02:39:29.265Z,13.31
2022-12-31T02:41:55.744Z,13.28
2022-12-31T02:44:26.860Z,13.19
2022-12-31T02:47:09.122Z,13.12
2022-12-31T02:49:51.267Z,13.04
2022-12-31T02:52:36.524Z,12.99
2022-12-31T02:55:25.707Z,12.88
2022-12-31T02:58:13.416Z,12.79
2022-12-31T03:01:05.667Z,12.72
2022-12-31T03:03:34.594Z,12.61
2022-12-31T03:06:03.781Z,12.52
2022-12-31T03:08:30.752Z,12.46
2022-12-31T03:10:57.357Z,12.36
2022-12-31T03:13:26.719Z,12.27
2022-12-31T03:15:53.331Z,12.18
2022-12-31T03:18:39.955Z,12.11
2022-12-31T03:21:32.312Z,12.06
2022-12-31T03:24:17.475Z,11.98
2022-12-31T03:26:47.960Z,11.99
2022-12-31T03:29:14.477Z,12.00
2022-12-31T03:31:40.976Z,12.00
2022-12-31T03:34:07.479Z,12.00
2022-12-31T03:36:35.663Z,11.95
2022-12-31T03:39:02.248Z,11.89
2022-12-31T03:41:28.839Z,11.89
2022-12-31T03:43:55.309Z,11.88
2022-12-31T03:46:21.796Z,11.87
2022-12-31T03:48:48.534Z,11.83
2022-12-31T03:51:15.613Z,11.81
2022-12-31T03:53:42.066Z,11.74
2022-12-31T03:56:08.577Z,11.59
2022-12-31T03:58:36.990Z,11.43
2022-12-31T04:01:03.600Z,11.28
2022-12-31T04:03:30.176Z,11.14
2022-12-31T04:05:57.045Z,11.07
2022-12-31T04:08:24.761Z,10.98
2022-12-31T04:10:53.127Z,10.93
2022-12-31T04:13:19.630Z,10.88
2022-12-31T04:15:50.144Z,10.90
2022-12-31T04:18:16.634Z,10.89
2022-12-31T04:20:46.559Z,10.82
2022-12-31T04:23:13.148Z,10.77
2022-12-31T04:25:39.652Z,10.69
2022-12-31T04:28:06.116Z,10.62
2022-12-31T04:30:34.872Z,10.49
2022-12-31T04:33:01.358Z,10.38
2022-12-31T04:35:27.909Z,10.30
2022-12-31T04:37:54.407Z,10.22
2022-12-31T04:40:21.101Z,10.19
2022-12-31T04:42:47.565Z,10.15
2022-12-31T04:45:14.045Z,10.12
2022-12-31T04:47:40.593Z,10.08
2022-12-31T04:50:07.501Z,10.09
2022-12-31T04:52:42.462Z,10.11
2022-12-31T04:55:09.446Z,10.13
2022-12-31T04:57:35.904Z,10.17
2022-12-31T05:00:02.406Z,10.20
2022-12-31T05:02:30.184Z,10.19
2022-12-31T05:04:56.795Z,10.14
2022-12-31T05:07:26.011Z,10.09
2022-12-31T05:09:52.485Z,10.08
2022-12-31T05:12:23.189Z,10.07
2022-12-31T05:14:49.654Z,10.05
2022-12-31T05:17:16.198Z,10.02
2022-12-31T05:19:42.652Z,9.94
2022-12-31T05:22:27.875Z,9.94
2022-12-31T05:25:00.180Z,9.88
2022-12-31T05:27:31.155Z,9.80
2022-12-31T05:29:57.843Z,9.78
2022-12-31T05:32:24.494Z,9.79
2022-12-31T05:34:50.952Z,9.80
2022-12-31T05:37:17.442Z,9.79
2022-12-31T05:39:47.785Z,9.81
2022-12-31T05:42:14.243Z,9.80
2022-12-31T05:44:40.699Z,9.83
2022-12-31T05:47:07.220Z,9.80
2022-12-31T05:49:33.917Z,9.83
2022-12-31T05:52:00.580Z,9.86
2022-12-31T05:54:27.095Z,9.79
2022-12-31T05:56:53.649Z,9.70
2022-12-31T05:59:20.435Z,9.62
2022-12-31T06:01:46.989Z,9.58
2022-12-31T06:04:13.491Z,9.57
2022-12-31T06:06:40.583Z,9.52
2022-12-31T06:09:07.095Z,9.51
2022-12-31T06:11:33.802Z,9.51
2022-12-31T06:14:00.499Z,9.53
2022-12-31T06:16:27.280Z,9.53
2022-12-31T06:18:54.400Z,9.53
2022-12-31T06:21:21.721Z,9.58
2022-12-31T06:23:48.760Z,9.62
2022-12-31T06:26:15.957Z,9.66
2022-12-31T06:28:42.559Z,9.70
2022-12-31T06:31:12.507Z,9.69
2022-12-31T06:33:39.071Z,9.68
2022-12-31T06:36:08.448Z,9.64
2022-12-31T06:38:38.443Z,9.56
2022-12-31T06:41:10.608Z,9.54
2022-12-31T06:43:38.854Z,9.50
2022-12-31T06:46:07.276Z,9.46
2022-12-31T06:48:34.435Z,9.44
2022-12-31T06:51:15.020Z,9.42
2022-12-31T06:54:06.062Z,9.40
2022-12-31T06:56:34.717Z,9.36
2022-12-31T06:59:03.125Z,9.31
2022-12-31T07:01:43.427Z,9.27
2022-12-31T07:04:30.832Z,9.21
2022-12-31T07:07:12.547Z,9.23
2022-12-31T07:10:03.345Z,9.30
2022-12-31T07:12:44.448Z,9.34
2022-12-31T07:15:34.845Z,9.29
2022-12-31T07:18:26.048Z,9.19
2022-12-31T07:20:52.887Z,9.07
2022-12-31T07:23:19.779Z,8.97
2022-12-31T07:25:55.365Z,8.89
2022-12-31T07:28:36.217Z,8.82
2022-12-31T07:31:11.718Z,8.78
2022-12-31T07:33:45.059Z,8.86
2022-12-31T07:36:29.716Z,9.03
2022-12-31T07:39:04.929Z,9.21
2022-12-31T07:41:49.903Z,9.27
2022-12-31T07:44:45.576Z,9.34
2022-12-31T07:47:30.558Z,9.38
2022-12-31T07:49:57.990Z,9.39
2022-12-31T07:52:27.139Z,9.46
2022-12-31T07:54:53.627Z,9.69
2022-12-31T07:57:21.559Z,9.87
2022-12-31T08:00:05.114Z,9.92
2022-12-31T08:03:11.949Z,10.02
2022-12-31T08:05:38.358Z,10.42
2022-12-31T08:08:32.796Z,10.81
2022-12-31T08:11:18.112Z,11.34
2022-12-31T08:13:45.762Z,11.91
2022-12-31T08:16:14.162Z,12.37
2022-12-31T08:18:41.092Z,12.71
2022-12-31T08:21:21.513Z,13.03
2022-12-31T08:24:17.173Z,13.01
2022-12-31T08:26:53.350Z,13.05
2022-12-31T08:30:01.266Z,13.17
2022-12-31T08:32:41.549Z,13.28
2022-12-31T08:35:25.455Z,13.78
2022-12-31T08:38:16.920Z,14.13
2022-12-31T08:41:25.373Z,14.02
2022-12-31T08:46:34.554Z,14.49
2022-12-31T08:49:01.345Z,14.53
2022-12-31T08:51:28.142Z,14.44
2022-12-31T08:53:55.407Z,14.51
2022-12-31T08:56:42.806Z,14.16
2022-12-31T08:59:41.421Z,14.66
2022-12-31T09:02:08.074Z,14.67
2022-12-31T09:04:50.032Z,15.16
2022-12-31T09:07:22.631Z,15.21
2022-12-31T09:10:04.461Z,15.26
2022-12-31T09:12:37.253Z,15.10
2022-12-31T09:15:25.220Z,15.08
2022-12-31T09:17:52.507Z,15.14
2022-12-31T09:20:42.807Z,15.03
2022-12-31T09:23:11.125Z,15.41
2022-12-31T09:25:46.158Z,15.48
2022-12-31T09:28:35.368Z,15.51
2022-12-31T09:31:45.414Z,14.96
2022-12-31T09:34:31.076Z,14.83
2022-12-31T09:37:25.380Z,15.12
2022-12-31T09:39:54.793Z,15.17
2022-12-31T09:42:33.419Z,15.06
2022-12-31T09:45:37.546Z,15.17
2022-12-31T09:48:16.903Z,15.19
2022-12-31T09:50:50.624Z,14.64
2022-12-31T09:53:18.964Z,14.35
2022-12-31T09:55:49.724Z,14.52
2022-12-31T09:58:30.205Z,14.55
2022-12-31T10:01:06.807Z,14.65
2022-12-31T10:03:50.803Z,14.64
2022-12-31T10:06:45.599Z,14.40
2022-12-31T10:09:53.564Z,14.42
2022-12-31T10:12:41.838Z,14.13
2022-12-31T10:15:47.377Z,14.06
2022-12-31T10:18:39.193Z,13.98
2022-12-31T10:21:26.262Z,13.84
2022-12-31T10:24:18.310Z,13.95
2022-12-31T10:27:02.637Z,14.21
2022-12-31T10:29:47.854Z,14.28
2022-12-31T10:32:18.037Z,14.25
2022-12-31T10:34:57.832Z,14.34
2022-12-31T10:37:51.139Z,14.51
2022-12-31T10:41:01.271Z,14.45
2022-12-31T10:44:01.530Z,14.45
2022-12-31T10:46:58.051Z,14.67
2022-12-31T10:50:03.681Z,14.72
2022-12-31T10:53:07.577Z,14.71
2022-12-31T10:55:55.930Z,14.71
2022-12-31T10:58:52.445Z,14.86
2022-12-31T11:01:40.878Z,14.60
2022-12-31T11:04:19.962Z,14.65
2022-12-31T11:07:03.658Z,14.62
2022-12-31T11:09:53.680Z,14.72
2022-12-31T11:12:47.058Z,14.84
2022-12-31T11:15:18.795Z,15.03
2022-12-31T11:17:50.261Z,14.98
2022-12-31T11:20:27.397Z,14.80
2022-12-31T11:23:12.640Z,14.31
2022-12-31T11:25:47.127Z,14.34
2022-12-31T11:28:30.640Z,14.30
2022-12-31T11:31:18.609Z,14.43
2022-12-31T11:34:13.639Z,14.51
2022-12-31T11:36:52.160Z,14.35
2022-12-31T11:39:35.584Z,14.28
2022-12-31T11:42:20.906Z,14.21
2022-12-31T11:44:55.469Z,14.16
2022-12-31T11:47:24.649Z,14.01
2022-12-31T11:50:27.515Z,13.92
2022-12-31T11:53:30.953Z,13.91
2022-12-31T11:56:14.432Z,13.90
2022-12-31T11:58:46.914Z,13.90
2022-12-31T12:01:26.760Z,13.96
2022-12-31T12:03:57.128Z,14.04
2022-12-31T12:06:28.292Z,13.96
2022-12-31T12:08:59.869Z,14.01
2022-12-31T12:11:30.525Z,14.03
2022-12-31T12:13:57.071Z,14.05
2022-12-31T12:16:25.769Z,14.13
2022-12-31T12:19:07.313Z,14.03
2022-12-31T12:21:34.154Z,13.97
2022-12-31T12:24:03.798Z,14.07
2022-12-31T12:26:35.387Z,14.10
2022-12-31T12:29:16.789Z,14.17
2022-12-31T12:31:56.622Z,14.19
2022-12-31T12:34:34.218Z,14.17
2022-12-31T12:37:01.532Z,14.15
2022-12-31T12:39:35.014Z,14.03
2022-12-31T12:42:08.063Z,14.03
2022-12-31T12:44:35.910Z,14.02
2022-12-31T12:47:05.539Z,14.07
2022-12-31T12:49:39.852Z,14.01
2022-12-31T12:52:28.053Z,14.03
2022-12-31T12:55:14.550Z,13.99
2022-12-31T12:58:02.568Z,13.97
2022-12-31T13:00:48.303Z,13.97
2022-12-31T13:04:32.021Z,13.93
2022-12-31T13:06:56.854Z,13.89
2022-12-31T13:09:54.275Z,13.89
2022-12-31T13:12:56.805Z,13.82
2022-12-31T13:15:41.784Z,13.81
2022-12-31T13:18:22.167Z,13.81
2022-12-31T13:21:07.723Z,13.81
2022-12-31T13:23:56.943Z,13.77
2022-12-31T13:26:28.505Z,13.74
2022-12-31T13:28:57.880Z,13.69
2022-12-31T13:31:31.855Z,13.66
2022-12-31T13:34:07.275Z,13.65
2022-12-31T13:36:38.257Z,13.58
2022-12-31T13:39:12.535Z,13.59
2022-12-31T13:41:46.121Z,13.58
2022-12-31T13:44:25.128Z,13.56
2022-12-31T13:47:10.095Z,13.54
2022-12-31T13:49:48.776Z,13.53
2022-12-31T13:52:27.473Z,13.50
2022-12-31T13:55:18.931Z,13.47
2022-12-31T13:57:50.703Z,13.44
2022-12-31T14:00:32.317Z,13.44
2022-12-31T14:03:02.749Z,13.40
2022-12-31T14:05:37.052Z,13.40
2022-12-31T14:08:05.999Z,13.39
2022-12-31T14:11:12.772Z,13.35
2022-12-31T14:13:58.004Z,13.34
2022-12-31T14:16:39.420Z,13.31
2022-12-31T14:19:31.146Z,13.30
2022-12-31T14:21:59.839Z,13.28
2022-12-31T14:24:43.118Z,13.24
2022-12-31T14:27:16.998Z,13.19
2022-12-31T14:30:01.681Z,13.16
2022-12-31T14:32:56.358Z,13.19
2022-12-31T14:35:32.759Z,13.18
2022-12-31T14:38:16.324Z,13.14
2022-12-31T14:41:12.311Z,13.10
2022-12-31T14:43:50.782Z,13.08
2022-12-31T14:46:44.480Z,13.04
2022-12-31T14:49:50.063Z,12.99
2022-12-31T14:52:16.484Z,12.96
2022-12-31T14:54:43.014Z,12.94
2022-12-31T14:58:01.755Z,12.93
2022-12-31T15:00:30.081Z,12.92
2022-12-31T15:03:22.883Z,12.88
2022-12-31T15:05:56.229Z,12.84
2022-12-31T15:08:40.941Z,12.81
2022-12-31T15:11:13.547Z,12.78
2022-12-31T15:13:58.474Z,12.71
2022-12-31T15:16:48.583Z,12.70
2022-12-31T15:19:39.076Z,12.70
2022-12-31T15:22:08.549Z,12.62
2022-12-31T15:24:35.578Z,12.56
2022-12-31T15:27:05.257Z,12.52
2022-12-31T15:29:41.868Z,12.45
2022-12-31T15:32:17.885Z,12.42
2022-12-31T15:34:44.710Z,12.38
2022-12-31T15:37:31.697Z,12.33
2022-12-31T15:40:19.456Z,12.29
2022-12-31T15:42:55.709Z,12.26
2022-12-31T15:45:32.743Z,12.20
2022-12-31T15:48:01.900Z,12.15
2022-12-31T15:50:29.668Z,12.14
2022-12-31T15:52:58.691Z,12.11
2022-12-31T15:55:37.749Z,12.11
2022-12-31T15:58:11.232Z,12.09
2022-12-31T16:00:54.266Z,12.07
2022-12-31T16:03:27.164Z,12.08
2022-12-31T16:06:08.787Z,12.06
2022-12-31T16:08:36.037Z,12.03
2022-12-31T16:11:07.428Z,12.02
2022-12-31T16:13:39.149Z,12.01
2022-12-31T16:16:27.646Z,12.02
2022-12-31T16:18:54.791Z,11.99
2022-12-31T16:21:33.371Z,11.98
2022-12-31T16:24:05.928Z,11.93
2022-12-31T16:27:18.993Z,11.92
2022-12-31T16:29:55.488Z,11.94
2022-12-31T16:32:28.075Z,11.91
2022-12-31T16:34:54.891Z,11.86
2022-12-31T16:37:23.467Z,11.82
2022-12-31T16:39:56.107Z,11.79
2022-12-31T16:42:24.895Z,11.72
2022-12-31T16:44:53.317Z,11.66
2022-12-31T16:47:35.884Z,11.67
2022-12-31T16:50:14.012Z,11.66
2022-12-31T16:52:43.105Z,11.62
2022-12-31T16:55:19.304Z,11.61
2022-12-31T16:58:00.060Z,11.60
2022-12-31T17:00:29.037Z,11.55
2022-12-31T17:03:17.765Z,11.50
2022-12-31T17:06:14.802Z,11.42
2022-12-31T17:08:54.835Z,11.37
2022-12-31T17:11:36.330Z,11.35
2022-12-31T17:14:05.853Z,11.34
2022-12-31T17:16:38.559Z,11.27
2022-12-31T17:19:05.137Z,11.20
2022-12-31T17:21:32.752Z,11.17
2022-12-31T17:24:06.048Z,11.13
2022-12-31T17:26:34.831Z,11.11
2022-12-31T17:29:03.911Z,11.07
2022-12-31T17:31:36.506Z,11.07
2022-12-31T17:34:15.173Z,11.01
2022-12-31T17:36:54.254Z,11.01
2022-12-31T17:39:23.155Z,11.06
2022-12-31T17:41:52.725Z,11.01
2022-12-31T17:44:22.480Z,10.97
2022-12-31T17:46:57.895Z,10.94
2022-12-31T17:49:30.292Z,10.95
2022-12-31T17:51:57.127Z,10.96
2022-12-31T17:54:23.581Z,11.03
2022-12-31T17:56:55.119Z,11.01
2022-12-31T17:59:24.121Z,11.07
2022-12-31T18:01:53.067Z,11.12
2022-12-31T18:04:20.816Z,11.08
2022-12-31T18:06:47.328Z,11.10
2022-12-31T18:09:15.918Z,11.06
2022-12-31T18:11:42.676Z,10.95
2022-12-31T18:14:13.760Z,10.86
2022-12-31T18:16:40.425Z,10.83
2022-12-31T18:19:23.588Z,10.87
2022-12-31T18:22:00.679Z,10.83
2022-12-31T18:24:27.182Z,10.84
2022-12-31T18:26:53.919Z,10.83
2022-12-31T18:29:22.522Z,10.86
2022-12-31T18:31:49.817Z,10.89
2022-12-31T18:34:18.455Z,10.92
2022-12-31T18:36:46.057Z,10.97
2022-12-31T18:39:14.867Z,10.95
2022-12-31T18:41:45.883Z,10.89
2022-12-31T18:44:14.345Z,10.88
2022-12-31T18:46:41.468Z,10.96
2022-12-31T18:49:10.424Z,11.02
2022-12-31T18:51:41.130Z,10.98
2022-12-31T18:54:11.172Z,10.89
2022-12-31T18:56:43.258Z,10.89
2022-12-31T18:59:13.716Z,10.96
2022-12-31T19:01:42.818Z,11.00
2022-12-31T19:04:19.949Z,11.04
2022-12-31T19:06:49.711Z,11.07
2022-12-31T19:09:43.965Z,11.04
2022-12-31T19:12:05.267Z,11.01
2022-12-31T19:14:32.180Z,11.03
2022-12-31T19:19:25.739Z,10.96
2022-12-31T19:21:52.249Z,11.00
2022-12-31T19:24:21.658Z,10.92
2022-12-31T19:26:48.869Z,10.87
2022-12-31T19:29:23.557Z,10.87
2022-12-31T19:31:50.422Z,10.80
2022-12-31T19:34:18.967Z,10.75
2022-12-31T19:36:45.970Z,10.70
2022-12-31T19:39:18.026Z,10.67
2022-12-31T19:41:45.439Z,10.63
2022-12-31T19:44:19.729Z,10.60
2022-12-31T19:46:46.978Z,10.57
2022-12-31T19:49:16.580Z,10.51
2022-12-31T19:51:43.313Z,10.45
2022-12-31T19:54:12.529Z,10.43
2022-12-31T19:56:39.051Z,10.44
2022-12-31T19:59:07.293Z,10.41
2022-12-31T20:01:33.927Z,10.37
2022-12-31T20:04:00.917Z,10.37
2022-12-31T20:06:27.550Z,10.30
2022-12-31T20:08:54.062Z,10.29
2022-12-31T20:11:23.845Z,10.26
2022-12-31T20:13:52.642Z,10.18
2022-12-31T20:16:21.352Z,10.11
2022-12-31T20:18:48.755Z,10.05
2022-12-31T20:21:26.912Z,9.94
2022-12-31T20:23:54.636Z,9.86
2022-12-31T20:26:23.984Z,9.81
2022-12-31T20:28:51.104Z,9.74
2022-12-31T20:31:20.374Z,9.74
2022-12-31T20:33:47.037Z,9.76
2022-12-31T20:36:16.478Z,9.76
2022-12-31T20:38:43.544Z,9.76
2022-12-31T20:41:13.152Z,9.75
2022-12-31T20:43:40.705Z,9.73
2022-12-31T20:46:14.904Z,9.75
2022-12-31T20:48:43.339Z,9.77
2022-12-31T20:51:11.688Z,9.75
2022-12-31T20:53:38.472Z,9.79
2022-12-31T20:56:06.436Z,9.83
2022-12-31T20:58:35.053Z,9.79
2022-12-31T21:01:05.109Z,9.75
2022-12-31T21:06:18.841Z,9.74
2022-12-31T21:08:45.521Z,9.62
2022-12-31T21:11:32.410Z,9.43
2022-12-31T21:13:59.972Z,9.26
2022-12-31T21:16:27.636Z,8.96
2022-12-31T21:18:54.831Z,8.68
2022-12-31T21:21:21.780Z,8.54
2022-12-31T21:23:50.109Z,8.42
2022-12-31T21:26:17.014Z,8.30
2022-12-31T21:28:46.023Z,8.21
2022-12-31T21:31:14.797Z,8.16
2022-12-31T21:33:48.107Z,8.11
2022-12-31T21:36:16.046Z,8.05
2022-12-31T21:38:43.627Z,7.99
2022-12-31T21:41:33.632Z,7.88
2022-12-31T21:44:03.945Z,7.78
2022-12-31T21:46:30.680Z,7.71
2022-12-31T21:48:58.514Z,7.62
2022-12-31T21:51:31.487Z,7.56
2022-12-31T21:54:00.331Z,7.43
2022-12-31T21:56:26.931Z,7.27
2022-12-31T21:59:14.798Z,7.13
2022-12-31T22:02:00.072Z,7.01
2022-12-31T22:05:01.468Z,6.90
2022-12-31T22:07:15.861Z,6.81
2022-12-31T22:09:42.416Z,6.75
2022-12-31T22:12:09.097Z,6.65
2022-12-31T22:14:35.692Z,6.63
2022-12-31T22:17:02.232Z,6.61
2022-12-31T22:19:28.807Z,6.57
2022-12-31T22:21:55.414Z,6.57
2022-12-31T22:24:22.043Z,6.63
2022-12-31T22:26:48.599Z,6.70
2022-12-31T22:29:15.174Z,6.70
2022-12-31T22:31:41.777Z,6.73
2022-12-31T22:34:08.419Z,6.82
2022-12-31T22:36:35.175Z,6.86
2022-12-31T22:39:02.034Z,6.83
2022-12-31T22:41:29.102Z,6.78
2022-12-31T22:44:03.648Z,6.75
2022-12-31T22:46:32.091Z,6.72
2022-12-31T22:49:00.219Z,6.72
2022-12-31T22:51:57.471Z,6.75
2022-12-31T22:54:21.232Z,6.82
2022-12-31T22:56:47.762Z,6.95
2022-12-31T22:59:14.331Z,7.08
2022-12-31T23:01:40.879Z,7.04
2022-12-31T23:04:07.706Z,7.03
2022-12-31T23:06:43.661Z,7.01
2022-12-31T23:09:30.636Z,6.93
2022-12-31T23:12:00.639Z,6.95
2022-12-31T23:14:46.227Z,6.94
2022-12-31T23:17:36.941Z,6.90
2022-12-31T23:20:24.609Z,6.84
2022-12-31T23:23:09.919Z,6.82
2022-12-31T23:25:42.792Z,6.81
2022-12-31T23:28:12.544Z,6.80
2022-12-31T23:30:40.539Z,6.77
2022-12-31T23:33:07.992Z,6.75
2022-12-31T23:35:34.753Z,6.70
2022-12-31T23:38:01.290Z,6.72
2022-12-31T23:40:34.454Z,6.72
2022-12-31T23:43:06.872Z,6.71
2022-12-31T23:45:34.495Z,6.69
2022-12-31T23:48:01.089Z,6.67
2022-12-31T23:50:27.632Z,6.64
2022-12-31T23:52:56.588Z,6.64
2022-12-31T23:55:25.384Z,6.67
2022-12-31T23:57:51.872Z,6.71
